createdAt,value
2022-11-24T00:00:55.103Z,6.89
2022-11-24T00:02:56.839Z,6.91
2022-11-24T00:04:58.611Z,6.97
2022-11-24T00:06:59.897Z,6.95
2022-11-24T00:09:00.987Z,7.07
2022-11-24T00:11:02.357Z,6.98
2022-11-24T00:13:03.452Z,6.89
2022-11-24T00:15:04.983Z,6.98
2022-11-24T00:17:06.713Z,6.93
2022-11-24T00:19:07.928Z,6.87
2022-11-24T00:21:09.629Z,6.88
2022-11-24T00:23:10.662Z,6.85
2022-11-24T00:25:12.309Z,6.99
2022-11-24T00:27:14.118Z,7.02
2022-11-24T00:29:15.596Z,7.07
2022-11-24T00:31:17.590Z,7.05
2022-11-24T00:33:18.559Z,7.06
2022-11-24T00:35:20.147Z,7.05
2022-11-24T00:37:21.729Z,7.09
2022-11-24T00:39:23.410Z,7.13
2022-11-24T00:41:24.890Z,7.13
2022-11-24T00:43:26.130Z,7.23
2022-11-24T00:45:27.475Z,7.22
2022-11-24T00:47:29.122Z,7.17
2022-11-24T00:49:30.836Z,7.14
2022-11-24T00:51:31.972Z,7.07
2022-11-24T00:53:33.677Z,7.07
2022-11-24T00:55:34.759Z,7.06
2022-11-24T00:57:35.973Z,6.96
2022-11-24T00:59:37.685Z,6.87
2022-11-24T01:01:39.081Z,6.92
2022-11-24T01:03:40.958Z,6.8
2022-11-24T01:04:24.811Z,6.83
2022-11-24T01:06:26.304Z,6.82
2022-11-24T01:08:28.068Z,6.82
2022-11-24T01:10:29.747Z,6.91
2022-11-24T01:12:31.666Z,6.91
2022-11-24T01:14:33.655Z,6.85
2022-11-24T01:16:34.594Z,6.72
2022-11-24T01:18:36.396Z,6.8
2022-11-24T01:20:37.377Z,6.78
2022-11-24T01:22:38.923Z,6.81
2022-11-24T01:26:42.472Z,6.72
2022-11-24T01:28:46.903Z,6.7
2022-11-24T01:30:45.438Z,6.78
2022-11-24T01:32:47.213Z,7.03
2022-11-24T01:34:48.815Z,7.03
2022-11-24T01:36:50.338Z,7.17
2022-11-24T01:38:52.174Z,7.14
2022-11-24T01:40:53.453Z,7.19
2022-11-24T01:42:55.016Z,7.16
2022-11-24T01:44:56.511Z,7.14
2022-11-24T01:46:57.995Z,7.27
2022-11-24T01:48:59.406Z,7.35
2022-11-24T01:51:01.189Z,7.47
2022-11-24T01:53:02.545Z,7.47
2022-11-24T01:55:12.196Z,7.62
2022-11-24T01:57:06.106Z,7.65
2022-11-24T01:59:08.002Z,7.68
2022-11-24T02:01:09.520Z,7.72
2022-11-24T02:03:10.624Z,7.71
2022-11-24T02:05:12.287Z,7.7
2022-11-24T02:09:14.912Z,7.72
2022-11-24T02:11:15.888Z,7.8
2022-11-24T02:13:17.045Z,7.79
2022-11-24T02:15:18.201Z,7.86
2022-11-24T02:17:19.922Z,7.8
2022-11-24T02:19:21.586Z,7.86
2022-11-24T02:21:23.082Z,7.86
2022-11-24T02:23:24.974Z,7.94
2022-11-24T02:25:25.953Z,7.96
2022-11-24T02:27:27.263Z,8
2022-11-24T02:29:28.438Z,7.94
2022-11-24T02:31:29.918Z,7.96
2022-11-24T02:33:30.820Z,8.07
2022-11-24T02:35:31.990Z,7.98
2022-11-24T02:37:33.554Z,7.96
2022-11-24T02:39:35.392Z,8.03
2022-11-24T02:41:37.069Z,7.96
2022-11-24T02:43:38.240Z,7.98
2022-11-24T02:45:39.495Z,8
2022-11-24T02:47:40.648Z,7.95
2022-11-24T02:49:42.099Z,8.03
2022-11-24T02:51:43.336Z,8.04
2022-11-24T02:53:45.156Z,8.03
2022-11-24T02:55:46.774Z,8.07
2022-11-24T02:57:48.461Z,8.05
2022-11-24T02:59:50.019Z,8.01
2022-11-24T03:01:51.745Z,8.1
2022-11-24T03:03:53.052Z,8.04
2022-11-24T03:05:54.863Z,7.93
2022-11-24T03:07:56.036Z,7.97
2022-11-24T03:09:57.888Z,7.92
2022-11-24T03:11:59.595Z,7.99
2022-11-24T03:14:00.787Z,7.88
2022-11-24T03:16:02.179Z,7.94
2022-11-24T03:18:03.719Z,7.93
2022-11-24T03:20:05.450Z,7.89
2022-11-24T03:22:06.614Z,7.89
2022-11-24T03:24:08.290Z,7.78
2022-11-24T03:26:09.383Z,7.79
2022-11-24T03:28:11.166Z,7.79
2022-11-24T03:30:13.916Z,7.73
2022-11-24T03:32:13.991Z,7.73
2022-11-24T03:34:14.984Z,7.69
2022-11-24T03:36:16.295Z,7.81
2022-11-24T03:38:17.671Z,7.74
2022-11-24T03:40:19.181Z,7.72
2022-11-24T03:42:20.931Z,7.69
2022-11-24T03:44:22.491Z,7.71
2022-11-24T03:46:24.195Z,7.66
2022-11-24T03:48:25.207Z,7.57
2022-11-24T03:50:27.195Z,7.72
2022-11-24T03:52:28.455Z,7.72
2022-11-24T03:54:29.963Z,7.7
2022-11-24T03:56:31.420Z,7.71
2022-11-24T03:58:32.732Z,7.67
2022-11-24T04:00:34.570Z,7.63
2022-11-24T04:02:35.551Z,7.7
2022-11-24T04:04:36.595Z,7.78
2022-11-24T04:06:37.926Z,7.7
2022-11-24T04:08:39.555Z,7.65
2022-11-24T04:10:41.354Z,7.7
2022-11-24T04:12:42.526Z,7.68
2022-11-24T04:14:43.625Z,7.6
2022-11-24T04:16:45.017Z,7.58
2022-11-24T04:18:46.018Z,7.63
2022-11-24T04:20:47.231Z,7.65
2022-11-24T04:22:48.569Z,7.72
2022-11-24T04:24:50.495Z,7.7
2022-11-24T04:26:51.982Z,7.76
2022-11-24T04:28:53.575Z,7.77
2022-11-24T04:30:55.185Z,7.77
2022-11-24T04:32:57.056Z,7.78
2022-11-24T04:34:58.563Z,7.99
2022-11-24T04:36:59.512Z,8.03
2022-11-24T04:39:20.241Z,8.07
2022-11-24T04:41:02.575Z,8
2022-11-24T04:43:03.630Z,7.98
2022-11-24T04:45:05.525Z,7.97
2022-11-24T04:47:07.040Z,8.01
2022-11-24T04:49:08.695Z,8.08
2022-11-24T04:51:09.631Z,8.09
2022-11-24T04:53:10.804Z,8.19
2022-11-24T04:55:12.709Z,8.2
2022-11-24T04:57:14.218Z,8.17
2022-11-24T04:59:16.086Z,8.11
2022-11-24T05:01:17.686Z,8.19
2022-11-24T05:03:18.857Z,8.16
2022-11-24T05:05:20.554Z,8.2
2022-11-24T05:07:22.127Z,8.13
2022-11-24T05:09:32.578Z,8.09
2022-11-24T05:11:25.324Z,8.13
2022-11-24T05:13:26.796Z,8.22
2022-11-24T05:15:28.430Z,8.2
2022-11-24T05:17:30.140Z,8.09
2022-11-24T05:19:32.432Z,8.16
2022-11-24T05:21:33.205Z,8.06
2022-11-24T05:23:34.852Z,7.97
2022-11-24T05:25:35.919Z,8.02
2022-11-24T05:27:37.283Z,7.94
2022-11-24T05:29:38.343Z,7.99
2022-11-24T05:31:40.109Z,7.97
2022-11-24T05:33:41.227Z,7.94
2022-11-24T05:35:42.211Z,7.88
2022-11-24T05:37:43.296Z,7.91
2022-11-24T05:39:44.701Z,7.97
2022-11-24T05:41:46.323Z,7.96
2022-11-24T05:43:47.518Z,7.97
2022-11-24T05:45:48.858Z,7.9
2022-11-24T05:47:50.648Z,7.93
2022-11-24T05:49:51.854Z,7.9
2022-11-24T05:51:53.518Z,7.86
2022-11-24T05:53:54.534Z,7.83
2022-11-24T05:57:56.959Z,7.78
2022-11-24T05:59:58.579Z,7.95
2022-11-24T06:01:59.705Z,7.97
2022-11-24T06:04:00.876Z,7.99
2022-11-24T06:06:02.062Z,7.92
2022-11-24T06:08:03.846Z,7.98
2022-11-24T06:10:04.895Z,7.88
2022-11-24T06:12:06.452Z,7.82
2022-11-24T06:14:11.045Z,7.85
2022-11-24T06:16:09.346Z,7.85
2022-11-24T06:18:11.169Z,7.84
2022-11-24T06:20:12.095Z,7.86
2022-11-24T06:22:14.056Z,7.81
2022-11-24T06:24:14.997Z,7.88
2022-11-24T06:26:16.320Z,7.82
2022-11-24T06:28:18.252Z,7.79
2022-11-24T06:30:19.295Z,7.76
2022-11-24T06:32:20.363Z,7.81
2022-11-24T06:34:21.863Z,7.79
2022-11-24T06:36:23.550Z,7.77
2022-11-24T06:38:25.245Z,7.7
2022-11-24T06:40:27.180Z,7.63
2022-11-24T06:42:28.882Z,7.58
2022-11-24T06:44:31.051Z,7.54
2022-11-24T06:46:32.224Z,7.56
2022-11-24T06:48:33.189Z,7.54
2022-11-24T06:50:34.549Z,7.5
2022-11-24T06:52:35.925Z,7.54
2022-11-24T06:54:37.597Z,7.52
2022-11-24T06:56:39.208Z,7.58
2022-11-24T06:58:40.997Z,7.58
2022-11-24T07:00:42.289Z,7.57
2022-11-24T07:02:45.986Z,7.57
2022-11-24T07:04:45.291Z,7.52
2022-11-24T07:06:46.580Z,7.47
2022-11-24T07:08:48.015Z,7.48
2022-11-24T07:10:49.479Z,7.43
2022-11-24T07:12:51.196Z,7.42
2022-11-24T07:14:52.958Z,7.46
2022-11-24T07:16:54.281Z,7.45
2022-11-24T07:18:55.282Z,7.42
2022-11-24T07:20:56.202Z,7.38
2022-11-24T07:22:57.371Z,7.39
2022-11-24T07:24:58.977Z,7.36
2022-11-24T07:27:00.036Z,7.37
2022-11-24T07:29:01.829Z,7.35
2022-11-24T07:31:03.454Z,7.33
2022-11-24T07:33:05.122Z,7.39
2022-11-24T07:35:06.238Z,7.34
2022-11-24T07:37:07.275Z,7.34
2022-11-24T07:39:08.309Z,7.31
2022-11-24T07:41:09.285Z,7.29
2022-11-24T07:43:13.472Z,7.3
2022-11-24T07:45:12.741Z,7.3
2022-11-24T07:47:13.796Z,7.31
2022-11-24T07:49:14.970Z,7.3
2022-11-24T07:52:00.498Z,7.3
2022-11-24T07:54:01.789Z,7.29
2022-11-24T07:56:03.679Z,7.31
2022-11-24T07:58:04.522Z,7.29
2022-11-24T08:00:05.564Z,7.3
2022-11-24T08:02:06.876Z,7.31
2022-11-24T08:04:08.368Z,7.3
2022-11-24T08:06:26.409Z,7.27
2022-11-24T08:08:11.748Z,7.27
2022-11-24T08:10:13.657Z,7.26
2022-11-24T08:12:15.193Z,7.25
2022-11-24T08:14:16.546Z,7.28
2022-11-24T08:16:18.327Z,7.3
2022-11-24T08:18:19.288Z,7.34
2022-11-24T08:20:20.415Z,7.37
2022-11-24T08:22:22.347Z,7.33
2022-11-24T08:24:24.163Z,7.32
2022-11-24T08:26:25.580Z,7.31
2022-11-24T08:28:26.598Z,7.31
2022-11-24T08:30:28.241Z,7.4
2022-11-24T08:32:29.499Z,7.4
2022-11-24T08:34:30.941Z,7.32
2022-11-24T08:36:32.207Z,7.44
2022-11-24T08:38:33.320Z,7.49
2022-11-24T08:40:34.831Z,7.47
2022-11-24T08:42:36.655Z,7.43
2022-11-24T08:44:37.876Z,7.5
2022-11-24T08:46:38.906Z,7.46
2022-11-24T08:48:39.832Z,7.49
2022-11-24T08:50:41.169Z,7.48
2022-11-24T08:52:42.918Z,7.46
2022-11-24T08:54:44.617Z,7.39
2022-11-24T08:56:46.391Z,7.4
2022-11-24T08:58:48.308Z,7.39
2022-11-24T09:00:50.081Z,7.44
2022-11-24T09:02:51.623Z,7.39
2022-11-24T09:04:53.002Z,7.44
2022-11-24T09:06:54.381Z,7.45
2022-11-24T09:08:56.019Z,7.45
2022-11-24T09:10:57.389Z,7.41
2022-11-24T09:12:58.632Z,7.41
2022-11-24T09:15:00.257Z,7.42
2022-11-24T09:17:02.243Z,7.44
2022-11-24T09:19:03.259Z,7.48
2022-11-24T09:21:04.679Z,7.47
2022-11-24T09:23:05.922Z,7.51
2022-11-24T09:25:07.743Z,7.52
2022-11-24T09:27:08.739Z,7.47
2022-11-24T09:29:10.218Z,7.48
2022-11-24T09:31:11.701Z,7.51
2022-11-24T09:33:12.699Z,7.55
2022-11-24T09:35:14.306Z,7.55
2022-11-24T09:37:15.255Z,7.55
2022-11-24T09:39:16.950Z,7.54
2022-11-24T09:41:18.293Z,7.5
2022-11-24T09:43:19.415Z,7.52
2022-11-24T09:45:35.599Z,7.53
2022-11-24T09:47:22.986Z,7.52
2022-11-24T09:49:24.109Z,7.52
2022-11-24T09:51:25.299Z,7.5
2022-11-24T09:53:26.442Z,7.49
2022-11-24T09:55:28.147Z,7.56
2022-11-24T09:57:32.698Z,7.63
2022-11-24T09:59:30.824Z,7.66
2022-11-24T10:01:31.873Z,7.77
2022-11-24T10:03:32.995Z,7.76
2022-11-24T10:05:34.348Z,7.82
2022-11-24T10:07:35.562Z,7.79
2022-11-24T10:09:37.117Z,7.92
2022-11-24T10:11:38.009Z,7.92
2022-11-24T10:13:39.375Z,8.12
2022-11-24T10:15:40.429Z,8.16
2022-11-24T10:17:42.094Z,8.11
2022-11-24T10:19:43.834Z,8.09
2022-11-24T10:21:45.099Z,8.04
2022-11-24T10:23:46.334Z,8.03
2022-11-24T10:25:47.489Z,8.03
2022-11-24T10:27:48.534Z,8.02
2022-11-24T10:29:49.881Z,8.14
2022-11-24T10:31:51.561Z,8.3
2022-11-24T10:33:53.299Z,8.54
2022-11-24T10:35:54.567Z,8.49
2022-11-24T10:39:59.990Z,8.52
2022-11-24T10:41:58.095Z,8.42
2022-11-24T10:43:59.836Z,8.2
2022-11-24T10:46:01.261Z,8.24
2022-11-24T10:48:02.620Z,8.38
2022-11-24T10:50:03.713Z,8.59
2022-11-24T10:52:04.980Z,8.74
2022-11-24T10:54:06.690Z,8.82
2022-11-24T10:56:08.474Z,9.18
2022-11-24T10:58:10.301Z,9.03
2022-11-24T11:00:11.918Z,9.12
2022-11-24T11:02:13.985Z,9.07
2022-11-24T11:04:14.921Z,9.3
2022-11-24T11:06:15.866Z,9.46
2022-11-24T11:08:16.936Z,9.37
2022-11-24T11:10:18.162Z,9.13
2022-11-24T11:12:43.709Z,9.22
2022-11-24T11:14:21.187Z,9.15
2022-11-24T11:16:22.131Z,9.41
2022-11-24T11:18:23.936Z,9.32
2022-11-24T11:20:25.359Z,9.08
2022-11-24T11:22:26.850Z,9.07
2022-11-24T11:24:28.289Z,8.89
2022-11-24T11:26:29.560Z,8.87
2022-11-24T11:28:30.434Z,8.79
2022-11-24T11:34:34.217Z,8.77
2022-11-24T11:36:35.447Z,8.78
2022-11-24T11:38:37.302Z,8.7
2022-11-24T11:40:38.892Z,8.56
2022-11-24T11:43:02.163Z,8.52
2022-11-24T11:44:41.984Z,8.4
2022-11-24T11:46:43.992Z,8.39
2022-11-24T11:48:44.897Z,8.29
2022-11-24T11:51:15.385Z,8.3
2022-11-24T11:52:48.031Z,8.26
2022-11-24T11:54:49.947Z,8.24
2022-11-24T11:56:50.945Z,8.31
2022-11-24T11:58:52.473Z,8.32
2022-11-24T12:00:54.322Z,8.37
2022-11-24T12:02:56.294Z,8.5
2022-11-24T12:04:57.270Z,8.8
2022-11-24T12:06:58.914Z,8.93
2022-11-24T12:09:18.423Z,8.98
2022-11-24T12:11:01.047Z,9.1
2022-11-24T12:13:02.085Z,9.07
2022-11-24T12:15:07.459Z,8.87
2022-11-24T12:17:04.515Z,8.88
2022-11-24T12:19:05.762Z,8.8
2022-11-24T12:21:06.808Z,8.8
2022-11-24T12:23:07.970Z,8.79
2022-11-24T12:25:09.180Z,8.78
2022-11-24T12:27:10.197Z,8.85
2022-11-24T12:29:12.039Z,8.79
2022-11-24T12:31:13.903Z,8.79
2022-11-24T12:33:15.122Z,8.79
2022-11-24T12:35:16.759Z,8.79
2022-11-24T12:37:17.825Z,8.79
2022-11-24T12:39:19.006Z,8.82
2022-11-24T12:41:40.229Z,8.79
2022-11-24T12:43:21.399Z,8.78
2022-11-24T12:45:22.571Z,8.79
2022-11-24T12:47:23.879Z,8.8
2022-11-24T12:49:25.210Z,8.8
2022-11-24T12:51:26.629Z,8.8
2022-11-24T12:53:27.718Z,8.85
2022-11-24T12:55:28.951Z,8.9
2022-11-24T12:57:30.015Z,8.96
2022-11-24T12:59:31.788Z,9.04
2022-11-24T13:01:33.081Z,8.92
2022-11-24T13:03:34.819Z,8.96
2022-11-24T13:05:35.863Z,8.99
2022-11-24T13:07:37.683Z,9.02
2022-11-24T13:09:39.472Z,9.01
2022-11-24T13:11:40.740Z,9.04
2022-11-24T13:13:41.779Z,9.03
2022-11-24T13:15:45.887Z,9.05
2022-11-24T13:18:02.729Z,9.19
2022-11-24T13:19:45.970Z,9.17
2022-11-24T13:21:47.713Z,9.16
2022-11-24T13:23:49.065Z,9.22
2022-11-24T13:25:51.701Z,9.43
2022-11-24T13:27:53.447Z,9.6
2022-11-24T13:29:55.184Z,9.51
2022-11-24T13:31:56.715Z,10
2022-11-24T13:33:57.757Z,10.17
2022-11-24T13:35:59.462Z,10.03
2022-11-24T13:38:01.147Z,10.03
2022-11-24T13:40:02.103Z,9.9
2022-11-24T13:42:03.781Z,9.77
2022-11-24T13:46:06.436Z,9.49
2022-11-24T13:48:07.948Z,9.27
2022-11-24T13:50:09.744Z,9.25
2022-11-24T13:52:10.567Z,9.15
2022-11-24T13:54:12.273Z,9.05
2022-11-24T13:56:14.299Z,9.07
2022-11-24T13:58:15.442Z,9.03
2022-11-24T14:00:16.901Z,8.99
2022-11-24T14:02:17.963Z,8.97
2022-11-24T14:04:32.206Z,8.93
2022-11-24T14:06:20.600Z,8.9
2022-11-24T14:08:21.827Z,8.9
2022-11-24T14:10:23.014Z,8.9
2022-11-24T14:12:24.560Z,8.88
2022-11-24T14:14:25.786Z,8.92
2022-11-24T14:16:27.049Z,8.89
2022-11-24T14:18:28.029Z,8.89
2022-11-24T14:20:29.423Z,8.9
2022-11-24T14:22:31.025Z,8.9
2022-11-24T14:24:35.504Z,8.88
2022-11-24T14:26:34.305Z,9.01
2022-11-24T14:28:35.383Z,9
2022-11-24T14:30:36.946Z,9.01
2022-11-24T14:32:38.626Z,8.99
2022-11-24T14:34:39.916Z,9.02
2022-11-24T14:35:23.613Z,9.02
2022-11-24T14:37:24.866Z,8.99
2022-11-24T14:39:26.488Z,9
2022-11-24T14:41:27.938Z,9.01
2022-11-24T14:43:28.992Z,8.94
2022-11-24T14:45:29.949Z,8.99
2022-11-24T14:47:32.193Z,9.03
2022-11-24T14:49:32.300Z,8.95
2022-11-24T14:51:34.294Z,8.95
2022-11-24T14:53:35.836Z,8.94
2022-11-24T14:55:37.381Z,8.94
2022-11-24T14:57:38.543Z,8.88
2022-11-24T14:59:40.247Z,8.81
2022-11-24T15:01:42.261Z,8.75
2022-11-24T15:03:43.197Z,8.65
2022-11-24T15:05:45.140Z,8.56
2022-11-24T15:07:46.905Z,8.5
2022-11-24T15:11:48.935Z,8.37
2022-11-24T15:13:50.200Z,8.3
2022-11-24T15:15:51.840Z,8.36
2022-11-24T15:17:52.870Z,8.29
2022-11-24T15:19:54.528Z,8.25
2022-11-24T15:21:55.864Z,8.21
2022-11-24T15:23:56.946Z,8.19
2022-11-24T15:25:58.837Z,8.09
2022-11-24T15:28:00.698Z,8.26
2022-11-24T15:30:01.651Z,8.25
2022-11-24T15:32:03.442Z,8.21
2022-11-24T15:34:05.085Z,8.15
2022-11-24T15:36:06.975Z,8.09
2022-11-24T15:38:08.078Z,8.1
2022-11-24T15:40:09.283Z,8.02
2022-11-24T15:42:10.650Z,7.94
2022-11-24T15:44:12.299Z,7.82
2022-11-24T15:46:13.484Z,7.81
2022-11-24T15:48:18.071Z,7.78
2022-11-24T15:50:16.094Z,7.72
2022-11-24T15:54:19.571Z,7.7
2022-11-24T15:56:20.792Z,7.7
2022-11-24T15:58:22.738Z,7.82
2022-11-24T16:00:24.220Z,7.68
2022-11-24T16:02:26.129Z,7.53
2022-11-24T16:04:27.745Z,7.52
2022-11-24T16:06:29.463Z,7.42
2022-11-24T16:08:30.548Z,7.37
2022-11-24T16:10:32.312Z,7.45
2022-11-24T16:12:33.511Z,7.36
2022-11-24T16:14:35.432Z,7.45
2022-11-24T16:16:37.374Z,7.54
2022-11-24T16:18:38.833Z,7.49
2022-11-24T16:20:40.040Z,7.44
2022-11-24T16:22:41.945Z,7.4
2022-11-24T16:24:43.787Z,7.38
2022-11-24T16:26:45.100Z,7.3
2022-11-24T16:28:46.332Z,7.16
2022-11-24T16:30:47.654Z,6.88
2022-11-24T16:32:49.460Z,6.65
2022-11-24T16:34:50.538Z,6.5
2022-11-24T16:36:51.784Z,6.47
2022-11-24T16:38:53.443Z,6.51
2022-11-24T16:40:54.903Z,6.53
2022-11-24T16:42:56.097Z,6.51
2022-11-24T16:44:57.752Z,6.43
2022-11-24T16:46:59.018Z,6.37
2022-11-24T16:49:00.556Z,6.31
2022-11-24T16:51:02.364Z,6.19
2022-11-24T16:53:03.357Z,6.12
2022-11-24T16:55:04.798Z,6.01
2022-11-24T16:57:09.051Z,5.86
2022-11-24T16:59:07.765Z,5.83
2022-11-24T17:01:09.581Z,5.87
2022-11-24T17:03:11.520Z,5.88
2022-11-24T17:05:13.494Z,5.72
2022-11-24T17:07:15.162Z,5.76
2022-11-24T17:09:16.323Z,5.69
2022-11-24T17:11:17.508Z,5.45
2022-11-24T17:13:18.803Z,5.62
2022-11-24T17:15:32.920Z,5.51
2022-11-24T17:17:22.568Z,5.43
2022-11-24T17:19:24.091Z,5.34
2022-11-24T17:21:25.351Z,5.34
2022-11-24T17:23:26.724Z,5.48
2022-11-24T17:25:27.802Z,5.42
2022-11-24T17:27:29.584Z,5.37
2022-11-24T17:29:31.543Z,5.12
2022-11-24T17:31:33.454Z,5.13
2022-11-24T17:33:34.917Z,5.1
2022-11-24T17:35:36.673Z,5.17
2022-11-24T17:37:37.640Z,4.98
2022-11-24T17:39:38.840Z,4.88
2022-11-24T17:41:40.192Z,4.9
2022-11-24T17:43:41.263Z,4.96
2022-11-24T17:45:43.168Z,5.06
2022-11-24T17:47:44.159Z,5.22
2022-11-24T17:49:46.082Z,5.25
2022-11-24T17:51:47.627Z,5.41
2022-11-24T17:53:49.600Z,5.3
2022-11-24T17:55:50.771Z,5.46
2022-11-24T17:57:52.363Z,5.37
2022-11-24T17:59:53.492Z,5.35
2022-11-24T18:01:54.951Z,5.44
2022-11-24T18:03:56.493Z,5.65
2022-11-24T18:05:58.306Z,5.52
2022-11-24T18:08:00.218Z,5.46
2022-11-24T18:10:01.723Z,5.26
2022-11-24T18:12:03.241Z,5.06
2022-11-24T18:14:04.361Z,4.85
2022-11-24T18:16:05.909Z,4.78
2022-11-24T18:18:07.785Z,4.88
2022-11-24T18:20:08.781Z,4.88
2022-11-24T18:22:10.120Z,4.81
2022-11-24T18:24:11.974Z,4.92
2022-11-24T18:26:13.403Z,4.96
2022-11-24T18:28:14.491Z,4.96
2022-11-24T18:30:16.450Z,5.14
2022-11-24T18:32:18.081Z,4.99
2022-11-24T18:34:19.420Z,4.88
2022-11-24T18:36:22.686Z,4.52
2022-11-24T18:38:23.035Z,4.2
2022-11-24T18:40:24.604Z,3.97
2022-11-24T18:42:26.020Z,4.09
2022-11-24T18:44:27.576Z,4.07
2022-11-24T18:46:29.415Z,3.92
2022-11-24T18:48:30.839Z,3.83
2022-11-24T18:50:32.180Z,3.88
2022-11-24T18:52:33.358Z,3.85
2022-11-24T18:54:35.018Z,3.97
2022-11-24T18:56:36.273Z,3.77
2022-11-24T18:58:37.413Z,3.62
2022-11-24T19:00:38.935Z,3.5
2022-11-24T19:02:40.914Z,3.37
2022-11-24T19:04:42.042Z,3.27
2022-11-24T19:06:43.898Z,3.31
2022-11-24T19:08:45.722Z,3.41
2022-11-24T19:10:46.827Z,3.47
2022-11-24T19:12:48.155Z,3.4
2022-11-24T19:14:49.788Z,3.26
2022-11-24T19:16:51.823Z,3.18
2022-11-24T19:18:54.195Z,3.09
2022-11-24T19:20:53.847Z,3.14
2022-11-24T19:22:55.429Z,3.23
2022-11-24T19:24:56.507Z,3.22
2022-11-24T19:26:57.721Z,3.15
2022-11-24T19:28:58.834Z,2.98
2022-11-24T19:31:00.484Z,2.96
2022-11-24T19:33:02.061Z,3.01
2022-11-24T19:35:03.466Z,2.89
2022-11-24T19:37:04.629Z,2.84
2022-11-24T19:39:05.811Z,2.78
2022-11-24T19:43:08.741Z,2.84
2022-11-24T19:45:09.761Z,2.77
2022-11-24T19:47:11.697Z,2.8
2022-11-24T19:49:13.554Z,2.71
2022-11-24T19:51:14.976Z,2.62
2022-11-24T19:53:16.249Z,2.55
2022-11-24T19:55:17.500Z,2.27
2022-11-24T19:57:18.603Z,2.08
2022-11-24T19:59:20.505Z,2.09
2022-11-24T20:01:21.810Z,2.04
2022-11-24T20:03:23.785Z,2.1
2022-11-24T20:05:25.444Z,2.27
2022-11-24T20:07:26.755Z,2.3
2022-11-24T20:09:27.797Z,2.36
2022-11-24T20:11:29.031Z,2.38
2022-11-24T20:13:30.367Z,2.29
2022-11-24T20:15:31.929Z,2.17
2022-11-24T20:17:33.084Z,2.25
2022-11-24T20:19:34.744Z,2.2
2022-11-24T20:21:36.168Z,2.05
2022-11-24T20:23:37.539Z,1.99
2022-11-24T20:25:38.770Z,1.89
2022-11-24T20:27:39.904Z,1.83
2022-11-24T20:29:46.524Z,1.97
2022-11-24T20:31:43.054Z,2.01
2022-11-24T20:33:44.256Z,2.2
2022-11-24T20:35:45.751Z,2.34
2022-11-24T20:37:47.500Z,2.22
2022-11-24T20:39:48.536Z,2.31
2022-11-24T20:41:50.372Z,2.24
2022-11-24T20:43:52.094Z,2.37
2022-11-24T20:45:53.368Z,2.34
2022-11-24T20:47:54.922Z,2.25
2022-11-24T20:49:56.497Z,2.13
2022-11-24T20:51:57.839Z,2.04
2022-11-24T20:53:59.672Z,1.92
2022-11-24T20:56:05.534Z,1.88
2022-11-24T20:58:02.709Z,1.91
2022-11-24T21:00:04.668Z,1.83
2022-11-24T21:02:06.473Z,1.8
2022-11-24T21:04:08.276Z,1.73
2022-11-24T21:06:10.064Z,1.61
2022-11-24T21:08:12.039Z,1.51
2022-11-24T21:10:13.820Z,1.39
2022-11-24T21:12:15.062Z,1.39
2022-11-24T21:14:16.702Z,1.41
2022-11-24T21:16:18.089Z,1.53
2022-11-24T21:18:19.615Z,1.6
2022-11-24T21:20:20.904Z,1.52
2022-11-24T21:23:06.530Z,1.45
2022-11-24T21:25:08.261Z,1.4
2022-11-24T21:27:09.415Z,1.4
2022-11-24T21:29:11.113Z,1.46
2022-11-24T21:31:12.757Z,1.65
2022-11-24T21:33:14.020Z,1.7
2022-11-24T21:35:15.314Z,1.76
2022-11-24T21:37:17.210Z,1.74
2022-11-24T21:39:18.279Z,1.78
2022-11-24T21:41:19.459Z,1.77
2022-11-24T21:43:21.394Z,1.61
2022-11-24T21:45:23.478Z,1.45
2022-11-24T21:47:25.020Z,1.33
2022-11-24T21:49:26.204Z,1.31
2022-11-24T21:51:27.929Z,1.27
2022-11-24T21:53:29.165Z,1.3
2022-11-24T21:55:30.730Z,1.29
2022-11-24T21:57:32.417Z,1.22
2022-11-24T21:59:33.959Z,1.16
2022-11-24T22:01:35.324Z,1.06
2022-11-24T22:03:36.505Z,1.06
2022-11-24T22:05:37.729Z,0.82
2022-11-24T22:07:39.686Z,0.79
2022-11-24T22:09:40.859Z,0.84
2022-11-24T22:11:42.410Z,0.92
2022-11-24T22:13:43.836Z,0.99
2022-11-24T22:15:45.139Z,1.07
2022-11-24T22:17:47.064Z,1.22
2022-11-24T22:19:49.043Z,1.3
2022-11-24T22:21:50.428Z,1.18
2022-11-24T22:23:52.167Z,1.19
2022-11-24T22:25:54.093Z,1.15
2022-11-24T22:27:55.429Z,1.29
2022-11-24T22:29:56.529Z,1.34
2022-11-24T22:31:58.400Z,1.26
2022-11-24T22:33:59.738Z,1.27
2022-11-24T22:36:00.947Z,1.08
2022-11-24T22:38:02.613Z,1.08
2022-11-24T22:40:04.189Z,1.04
2022-11-24T22:44:08.012Z,0.8
2022-11-24T22:46:09.668Z,0.8
2022-11-24T22:48:10.929Z,0.74
2022-11-24T22:50:12.015Z,0.75
2022-11-24T22:52:13.258Z,0.83
2022-11-24T22:54:14.898Z,0.83
2022-11-24T22:56:16.795Z,0.79
2022-11-24T22:58:18.380Z,0.76
2022-11-24T23:00:20.338Z,0.79
2022-11-24T23:02:22.328Z,0.77
2022-11-24T23:04:23.576Z,0.7
2022-11-24T23:06:25.440Z,0.68
2022-11-24T23:08:27.279Z,0.69
2022-11-24T23:10:28.635Z,0.59
2022-11-24T23:12:29.870Z,0.56
2022-11-24T23:14:31.191Z,0.49
2022-11-24T23:16:32.434Z,0.48
2022-11-24T23:18:34.402Z,0.76
2022-11-24T23:20:35.837Z,0.84
2022-11-24T23:22:37.557Z,0.92
2022-11-24T23:24:39.437Z,0.79
2022-11-24T23:26:41.293Z,0.72
2022-11-24T23:28:42.448Z,0.59
2022-11-24T23:30:43.764Z,0.55
2022-11-24T23:32:45.005Z,0.67
2022-11-24T23:34:46.996Z,0.65
2022-11-24T23:36:48.845Z,0.54
2022-11-24T23:38:50.101Z,0.5
2022-11-24T23:40:51.966Z,0.52
2022-11-24T23:42:53.525Z,0.56
2022-11-24T23:44:54.760Z,0.47
2022-11-24T23:46:56.149Z,0.41
2022-11-24T23:48:58.159Z,0.42
2022-11-24T23:50:59.994Z,0.57
2022-11-24T23:53:01.637Z,0.56
2022-11-24T23:55:03.084Z,0.44
2022-11-24T23:57:04.448Z,0.37
2022-11-24T23:59:05.634Z,0.3
